sensor_id;sensor_type;location;lat;lon;timestamp;P1;durP1;ratioP1;P2;durP2;ratioP2
8462;SDS011;4268;52.506;13.462;2023-01-10T00:00:34;3.83;;;3.53;;
8462;SDS011;4268;52.506;13.462;2023-01-10T00:03:01;3.47;;;3.27;;
8462;SDS011;4268;52.506;13.462;2023-01-10T00:05:27;3.67;;;3.37;;
8462;SDS011;4268;52.506;13.462;2023-01-10T00:07:53;3.90;;;3.60;;
8462;SDS011;4268;52.506;13.462;2023-01-10T00:10:18;4.20;;;3.50;;
8462;SDS011;4268;52.506;13.462;2023-01-10T00:12:44;4.77;;;4.37;;
8462;SDS011;4268;52.506;13.462;2023-01-10T00:15:30;5.07;;;4.57;;
8462;SDS011;4268;52.506;13.462;2023-01-10T00:17:57;4.50;;;4.10;;
8462;SDS011;4268;52.506;13.462;2023-01-10T00:20:22;4.17;;;3.83;;
8462;SDS011;4268;52.506;13.462;2023-01-10T00:22:48;4.00;;;3.70;;
8462;SDS011;4268;52.506;13.462;2023-01-10T00:25:14;4.13;;;3.80;;
8462;SDS011;4268;52.506;13.462;2023-01-10T00:27:40;4.17;;;3.87;;
8462;SDS011;4268;52.506;13.462;2023-01-10T00:30:09;4.40;;;4.10;;
8462;SDS011;4268;52.506;13.462;2023-01-10T00:32:42;4.50;;;4.10;;
8462;SDS011;4268;52.506;13.462;2023-01-10T00:35:08;5.90;;;4.53;;
8462;SDS011;4268;52.506;13.462;2023-01-10T00:37:35;4.20;;;3.90;;
8462;SDS011;4268;52.506;13.462;2023-01-10T00:40:01;4.40;;;4.07;;
8462;SDS011;4268;52.506;13.462;2023-01-10T00:42:27;3.90;;;3.60;;
8462;SDS011;4268;52.506;13.462;2023-01-10T00:45:11;4.47;;;4.07;;
8462;SDS011;4268;52.506;13.462;2023-01-10T00:47:36;4.30;;;4.00;;
8462;SDS011;4268;52.506;13.462;2023-01-10T00:50:03;4.40;;;4.00;;
8462;SDS011;4268;52.506;13.462;2023-01-10T00:52:32;4.27;;;3.97;;
8462;SDS011;4268;52.506;13.462;2023-01-10T00:54:58;4.80;;;4.40;;
8462;SDS011;4268;52.506;13.462;2023-01-10T00:57:23;4.00;;;3.70;;
8462;SDS011;4268;52.506;13.462;2023-01-10T00:59:49;4.23;;;3.93;;
8462;SDS011;4268;52.506;13.462;2023-01-10T01:02:14;4.00;;;3.73;;
8462;SDS011;4268;52.506;13.462;2023-01-10T01:04:40;4.40;;;4.00;;
8462;SDS011;4268;52.506;13.462;2023-01-10T01:07:05;4.20;;;3.90;;
8462;SDS011;4268;52.506;13.462;2023-01-10T01:09:31;4.50;;;4.20;;
8462;SDS011;4268;52.506;13.462;2023-01-10T01:11:56;4.40;;;4.10;;
8462;SDS011;4268;52.506;13.462;2023-01-10T01:14:22;4.37;;;3.93;;
8462;SDS011;4268;52.506;13.462;2023-01-10T01:16:48;4.13;;;3.83;;
8462;SDS011;4268;52.506;13.462;2023-01-10T01:19:14;4.30;;;3.90;;
8462;SDS011;4268;52.506;13.462;2023-01-10T01:21:39;3.90;;;3.60;;
8462;SDS011;4268;52.506;13.462;2023-01-10T01:24:05;6.80;;;6.40;;
8462;SDS011;4268;52.506;13.462;2023-01-10T01:26:33;4.30;;;4.00;;
8462;SDS011;4268;52.506;13.462;2023-01-10T01:28:59;4.47;;;4.17;;
8462;SDS011;4268;52.506;13.462;2023-01-10T01:31:24;6.90;;;4.13;;
8462;SDS011;4268;52.506;13.462;2023-01-10T01:33:50;4.30;;;3.90;;
8462;SDS011;4268;52.506;13.462;2023-01-10T01:36:15;4.43;;;4.10;;
8462;SDS011;4268;52.506;13.462;2023-01-10T01:38:41;4.30;;;4.00;;
8462;SDS011;4268;52.506;13.462;2023-01-10T01:41:07;4.20;;;3.87;;
8462;SDS011;4268;52.506;13.462;2023-01-10T01:44:06;4.17;;;3.87;;
8462;SDS011;4268;52.506;13.462;2023-01-10T01:46:37;4.20;;;3.90;;
8462;SDS011;4268;52.506;13.462;2023-01-10T01:49:04;5.00;;;4.50;;
8462;SDS011;4268;52.506;13.462;2023-01-10T01:51:35;4.33;;;4.00;;
8462;SDS011;4268;52.506;13.462;2023-01-10T01:54:02;4.30;;;4.00;;
8462;SDS011;4268;52.506;13.462;2023-01-10T01:59:13;4.03;;;3.73;;
8462;SDS011;4268;52.506;13.462;2023-01-10T02:01:43;4.13;;;3.83;;
8462;SDS011;4268;52.506;13.462;2023-01-10T02:04:16;15.80;;;14.90;;
8462;SDS011;4268;52.506;13.462;2023-01-10T02:06:44;4.20;;;3.90;;
8462;SDS011;4268;52.506;13.462;2023-01-10T02:09:23;4.60;;;4.20;;
8462;SDS011;4268;52.506;13.462;2023-01-10T02:11:56;4.20;;;3.90;;
8462;SDS011;4268;52.506;13.462;2023-01-10T02:14:25;4.53;;;4.20;;
8462;SDS011;4268;52.506;13.462;2023-01-10T02:16:50;4.50;;;4.17;;
8462;SDS011;4268;52.506;13.462;2023-01-10T02:20:02;5.47;;;4.63;;
8462;SDS011;4268;52.506;13.462;2023-01-10T02:25:41;4.70;;;4.30;;
8462;SDS011;4268;52.506;13.462;2023-01-10T02:31:26;4.47;;;4.17;;
8462;SDS011;4268;52.506;13.462;2023-01-10T02:34:07;4.73;;;4.33;;
8462;SDS011;4268;52.506;13.462;2023-01-10T02:36:57;5.07;;;4.57;;
8462;SDS011;4268;52.506;13.462;2023-01-10T02:39:36;5.03;;;4.63;;
8462;SDS011;4268;52.506;13.462;2023-01-10T02:42:18;5.17;;;4.70;;
8462;SDS011;4268;52.506;13.462;2023-01-10T02:44:57;4.50;;;4.20;;
8462;SDS011;4268;52.506;13.462;2023-01-10T02:47:36;5.00;;;4.60;;
8462;SDS011;4268;52.506;13.462;2023-01-10T02:52:49;4.43;;;4.13;;
8462;SDS011;4268;52.506;13.462;2023-01-10T02:55:15;4.37;;;4.03;;
8462;SDS011;4268;52.506;13.462;2023-01-10T03:03:40;4.40;;;4.10;;
8462;SDS011;4268;52.506;13.462;2023-01-10T03:06:21;4.87;;;4.57;;
8462;SDS011;4268;52.506;13.462;2023-01-10T03:12:21;4.53;;;4.10;;
8462;SDS011;4268;52.506;13.462;2023-01-10T03:14:52;4.90;;;4.40;;
8462;SDS011;4268;52.506;13.462;2023-01-10T03:17:20;5.63;;;4.30;;
8462;SDS011;4268;52.506;13.462;2023-01-10T03:19:49;4.90;;;4.50;;
8462;SDS011;4268;52.506;13.462;2023-01-10T03:22:18;4.90;;;4.50;;
8462;SDS011;4268;52.506;13.462;2023-01-10T03:24:45;4.70;;;4.40;;
8462;SDS011;4268;52.506;13.462;2023-01-10T03:27:15;6.57;;;4.90;;
8462;SDS011;4268;52.506;13.462;2023-01-10T03:29:59;5.00;;;4.60;;
8462;SDS011;4268;52.506;13.462;2023-01-10T03:32:44;5.97;;;5.43;;
8462;SDS011;4268;52.506;13.462;2023-01-10T03:35:09;5.53;;;5.00;;
8462;SDS011;4268;52.506;13.462;2023-01-10T03:40:31;5.03;;;4.53;;
8462;SDS011;4268;52.506;13.462;2023-01-10T03:43:07;5.53;;;4.90;;
8462;SDS011;4268;52.506;13.462;2023-01-10T03:46:03;5.13;;;4.67;;
8462;SDS011;4268;52.506;13.462;2023-01-10T03:48:35;5.50;;;4.67;;
8462;SDS011;4268;52.506;13.462;2023-01-10T03:51:03;4.77;;;4.37;;
8462;SDS011;4268;52.506;13.462;2023-01-10T03:53:30;4.90;;;4.40;;
8462;SDS011;4268;52.506;13.462;2023-01-10T03:55:57;5.43;;;5.03;;
8462;SDS011;4268;52.506;13.462;2023-01-10T03:58:24;6.20;;;5.23;;
8462;SDS011;4268;52.506;13.462;2023-01-10T04:00:52;4.93;;;4.53;;
8462;SDS011;4268;52.506;13.462;2023-01-10T04:03:17;5.63;;;4.93;;
8462;SDS011;4268;52.506;13.462;2023-01-10T04:05:43;5.43;;;4.97;;
8462;SDS011;4268;52.506;13.462;2023-01-10T04:08:08;5.57;;;4.73;;
8462;SDS011;4268;52.506;13.462;2023-01-10T04:10:34;5.17;;;4.70;;
8462;SDS011;4268;52.506;13.462;2023-01-10T04:13:00;5.50;;;5.00;;
8462;SDS011;4268;52.506;13.462;2023-01-10T04:15:26;5.43;;;4.93;;
8462;SDS011;4268;52.506;13.462;2023-01-10T04:17:52;6.93;;;5.50;;
8462;SDS011;4268;52.506;13.462;2023-01-10T04:20:18;6.30;;;5.70;;
8462;SDS011;4268;52.506;13.462;2023-01-10T04:22:44;5.57;;;5.07;;
8462;SDS011;4268;52.506;13.462;2023-01-10T04:25:09;6.30;;;5.73;;
8462;SDS011;4268;52.506;13.462;2023-01-10T04:27:35;6.80;;;6.10;;
8462;SDS011;4268;52.506;13.462;2023-01-10T04:30:01;5.80;;;5.30;;
8462;SDS011;4268;52.506;13.462;2023-01-10T04:32:26;6.03;;;5.43;;
8462;SDS011;4268;52.506;13.462;2023-01-10T04:34:51;6.60;;;5.50;;
8462;SDS011;4268;52.506;13.462;2023-01-10T04:37:17;7.17;;;5.90;;
8462;SDS011;4268;52.506;13.462;2023-01-10T04:39:43;7.07;;;5.93;;
8462;SDS011;4268;52.506;13.462;2023-01-10T04:42:09;6.20;;;5.60;;
8462;SDS011;4268;52.506;13.462;2023-01-10T04:44:35;6.77;;;6.00;;
8462;SDS011;4268;52.506;13.462;2023-01-10T04:47:00;6.63;;;6.00;;
8462;SDS011;4268;52.506;13.462;2023-01-10T04:49:26;6.90;;;5.83;;
8462;SDS011;4268;52.506;13.462;2023-01-10T04:51:51;7.00;;;6.30;;
8462;SDS011;4268;52.506;13.462;2023-01-10T04:54:20;7.90;;;5.73;;
8462;SDS011;4268;52.506;13.462;2023-01-10T04:56:46;8.43;;;6.00;;
8462;SDS011;4268;52.506;13.462;2023-01-10T04:59:12;6.30;;;5.70;;
8462;SDS011;4268;52.506;13.462;2023-01-10T05:01:38;7.30;;;6.40;;
8462;SDS011;4268;52.506;13.462;2023-01-10T05:04:04;9.50;;;6.30;;
8462;SDS011;4268;52.506;13.462;2023-01-10T05:06:30;8.37;;;5.97;;
8462;SDS011;4268;52.506;13.462;2023-01-10T05:08:56;7.83;;;6.33;;
8462;SDS011;4268;52.506;13.462;2023-01-10T05:11:22;7.10;;;6.40;;
8462;SDS011;4268;52.506;13.462;2023-01-10T05:13:47;7.90;;;6.40;;
8462;SDS011;4268;52.506;13.462;2023-01-10T05:16:13;9.10;;;6.23;;
8462;SDS011;4268;52.506;13.462;2023-01-10T05:18:39;8.57;;;6.40;;
8462;SDS011;4268;52.506;13.462;2023-01-10T05:21:06;7.63;;;5.80;;
8462;SDS011;4268;52.506;13.462;2023-01-10T05:23:33;6.73;;;5.77;;
8462;SDS011;4268;52.506;13.462;2023-01-10T05:26:12;7.83;;;6.73;;
8462;SDS011;4268;52.506;13.462;2023-01-10T05:28:39;9.10;;;5.87;;
8462;SDS011;4268;52.506;13.462;2023-01-10T05:31:06;7.93;;;5.80;;
8462;SDS011;4268;52.506;13.462;2023-01-10T05:33:33;9.73;;;6.30;;
8462;SDS011;4268;52.506;13.462;2023-01-10T05:36:00;8.17;;;6.03;;
8462;SDS011;4268;52.506;13.462;2023-01-10T05:38:27;8.67;;;6.27;;
8462;SDS011;4268;52.506;13.462;2023-01-10T05:40:54;7.47;;;6.07;;
8462;SDS011;4268;52.506;13.462;2023-01-10T05:43:20;8.67;;;6.17;;
8462;SDS011;4268;52.506;13.462;2023-01-10T05:45:46;8.90;;;6.80;;
8462;SDS011;4268;52.506;13.462;2023-01-10T05:48:11;7.80;;;6.20;;
8462;SDS011;4268;52.506;13.462;2023-01-10T05:50:37;6.90;;;5.80;;
8462;SDS011;4268;52.506;13.462;2023-01-10T05:53:02;9.47;;;7.27;;
8462;SDS011;4268;52.506;13.462;2023-01-10T05:55:29;8.30;;;6.90;;
8462;SDS011;4268;52.506;13.462;2023-01-10T05:57:55;8.90;;;7.03;;
8462;SDS011;4268;52.506;13.462;2023-01-10T06:00:21;7.23;;;6.20;;
8462;SDS011;4268;52.506;13.462;2023-01-10T06:02:47;10.73;;;6.70;;
8462;SDS011;4268;52.506;13.462;2023-01-10T06:05:12;10.57;;;6.63;;
8462;SDS011;4268;52.506;13.462;2023-01-10T06:07:38;9.83;;;6.50;;
8462;SDS011;4268;52.506;13.462;2023-01-10T06:10:03;8.67;;;6.73;;
8462;SDS011;4268;52.506;13.462;2023-01-10T06:12:30;8.43;;;6.47;;
8462;SDS011;4268;52.506;13.462;2023-01-10T06:14:55;8.43;;;6.07;;
8462;SDS011;4268;52.506;13.462;2023-01-10T06:17:21;11.00;;;7.63;;
8462;SDS011;4268;52.506;13.462;2023-01-10T06:19:46;9.80;;;6.83;;
8462;SDS011;4268;52.506;13.462;2023-01-10T06:22:12;9.20;;;6.53;;
8462;SDS011;4268;52.506;13.462;2023-01-10T06:24:38;9.17;;;6.73;;
8462;SDS011;4268;52.506;13.462;2023-01-10T06:27:03;8.47;;;6.80;;
8462;SDS011;4268;52.506;13.462;2023-01-10T06:29:29;9.93;;;6.80;;
8462;SDS011;4268;52.506;13.462;2023-01-10T06:31:55;11.83;;;6.60;;
8462;SDS011;4268;52.506;13.462;2023-01-10T06:34:20;8.80;;;6.97;;
8462;SDS011;4268;52.506;13.462;2023-01-10T06:36:46;8.57;;;6.67;;
8462;SDS011;4268;52.506;13.462;2023-01-10T06:39:11;9.97;;;7.07;;
8462;SDS011;4268;52.506;13.462;2023-01-10T06:41:37;9.40;;;6.70;;
8462;SDS011;4268;52.506;13.462;2023-01-10T06:44:02;11.87;;;6.97;;
8462;SDS011;4268;52.506;13.462;2023-01-10T06:46:28;10.00;;;6.57;;
8462;SDS011;4268;52.506;13.462;2023-01-10T06:48:53;10.00;;;6.57;;
8462;SDS011;4268;52.506;13.462;2023-01-10T06:51:19;12.10;;;7.40;;
8462;SDS011;4268;52.506;13.462;2023-01-10T06:53:44;10.37;;;6.80;;
8462;SDS011;4268;52.506;13.462;2023-01-10T06:56:10;10.47;;;7.10;;
8462;SDS011;4268;52.506;13.462;2023-01-10T06:58:36;8.60;;;6.83;;
8462;SDS011;4268;52.506;13.462;2023-01-10T07:01:05;9.83;;;6.80;;
8462;SDS011;4268;52.506;13.462;2023-01-10T07:03:36;8.80;;;6.73;;
8462;SDS011;4268;52.506;13.462;2023-01-10T07:06:02;8.27;;;6.90;;
8462;SDS011;4268;52.506;13.462;2023-01-10T07:08:28;10.00;;;6.93;;
8462;SDS011;4268;52.506;13.462;2023-01-10T07:10:56;8.67;;;6.63;;
8462;SDS011;4268;52.506;13.462;2023-01-10T07:13:22;9.70;;;6.70;;
8462;SDS011;4268;52.506;13.462;2023-01-10T07:15:48;13.43;;;7.40;;
8462;SDS011;4268;52.506;13.462;2023-01-10T07:18:13;11.33;;;7.50;;
8462;SDS011;4268;52.506;13.462;2023-01-10T07:20:39;9.90;;;7.43;;
8462;SDS011;4268;52.506;13.462;2023-01-10T07:23:04;10.17;;;7.53;;
8462;SDS011;4268;52.506;13.462;2023-01-10T07:25:29;13.40;;;8.20;;
8462;SDS011;4268;52.506;13.462;2023-01-10T07:27:55;8.37;;;7.03;;
8462;SDS011;4268;52.506;13.462;2023-01-10T07:30:21;8.07;;;7.00;;
8462;SDS011;4268;52.506;13.462;2023-01-10T07:32:54;10.57;;;6.77;;
8462;SDS011;4268;52.506;13.462;2023-01-10T07:35:20;10.27;;;7.37;;
8462;SDS011;4268;52.506;13.462;2023-01-10T07:37:46;10.10;;;8.00;;
8462;SDS011;4268;52.506;13.462;2023-01-10T07:40:12;8.43;;;7.40;;
8462;SDS011;4268;52.506;13.462;2023-01-10T07:42:37;9.30;;;7.87;;
8462;SDS011;4268;52.506;13.462;2023-01-10T07:45:03;11.30;;;8.03;;
8462;SDS011;4268;52.506;13.462;2023-01-10T07:47:31;10.40;;;8.27;;
8462;SDS011;4268;52.506;13.462;2023-01-10T07:49:56;9.87;;;8.00;;
8462;SDS011;4268;52.506;13.462;2023-01-10T07:52:22;13.03;;;8.60;;
8462;SDS011;4268;52.506;13.462;2023-01-10T07:54:47;10.70;;;8.27;;
8462;SDS011;4268;52.506;13.462;2023-01-10T07:57:12;10.90;;;8.40;;
8462;SDS011;4268;52.506;13.462;2023-01-10T07:59:39;10.73;;;7.83;;
8462;SDS011;4268;52.506;13.462;2023-01-10T08:02:05;8.87;;;8.00;;
8462;SDS011;4268;52.506;13.462;2023-01-10T08:04:30;11.80;;;8.13;;
8462;SDS011;4268;52.506;13.462;2023-01-10T08:06:56;9.73;;;8.00;;
8462;SDS011;4268;52.506;13.462;2023-01-10T08:09:21;10.47;;;8.10;;
8462;SDS011;4268;52.506;13.462;2023-01-10T08:11:46;9.30;;;7.30;;
8462;SDS011;4268;52.506;13.462;2023-01-10T08:14:12;9.27;;;7.97;;
8462;SDS011;4268;52.506;13.462;2023-01-10T08:16:38;10.00;;;7.43;;
8462;SDS011;4268;52.506;13.462;2023-01-10T08:19:03;10.10;;;7.27;;
8462;SDS011;4268;52.506;13.462;2023-01-10T08:21:29;10.53;;;7.73;;
8462;SDS011;4268;52.506;13.462;2023-01-10T08:23:54;9.53;;;7.43;;
8462;SDS011;4268;52.506;13.462;2023-01-10T08:26:20;12.23;;;8.70;;
8462;SDS011;4268;52.506;13.462;2023-01-10T08:28:45;10.53;;;7.93;;
8462;SDS011;4268;52.506;13.462;2023-01-10T08:31:11;12.17;;;8.23;;
8462;SDS011;4268;52.506;13.462;2023-01-10T08:33:37;11.43;;;8.67;;
8462;SDS011;4268;52.506;13.462;2023-01-10T08:36:03;11.33;;;7.57;;
8462;SDS011;4268;52.506;13.462;2023-01-10T08:38:29;9.10;;;8.13;;
8462;SDS011;4268;52.506;13.462;2023-01-10T08:40:55;9.60;;;8.60;;
8462;SDS011;4268;52.506;13.462;2023-01-10T08:43:22;10.83;;;7.97;;
8462;SDS011;4268;52.506;13.462;2023-01-10T08:45:47;11.37;;;8.10;;
8462;SDS011;4268;52.506;13.462;2023-01-10T08:48:13;10.17;;;8.03;;
8462;SDS011;4268;52.506;13.462;2023-01-10T08:50:39;8.57;;;7.47;;
8462;SDS011;4268;52.506;13.462;2023-01-10T08:53:04;11.17;;;8.10;;
8462;SDS011;4268;52.506;13.462;2023-01-10T08:55:30;9.83;;;7.93;;
8462;SDS011;4268;52.506;13.462;2023-01-10T08:57:59;10.17;;;8.93;;
8462;SDS011;4268;52.506;13.462;2023-01-10T09:00:25;10.40;;;8.27;;
8462;SDS011;4268;52.506;13.462;2023-01-10T09:02:51;8.87;;;7.97;;
8462;SDS011;4268;52.506;13.462;2023-01-10T09:05:16;10.43;;;9.47;;
8462;SDS011;4268;52.506;13.462;2023-01-10T09:07:42;9.63;;;8.73;;
8462;SDS011;4268;52.506;13.462;2023-01-10T09:10:07;8.80;;;7.80;;
8462;SDS011;4268;52.506;13.462;2023-01-10T09:12:34;10.60;;;8.03;;
8462;SDS011;4268;52.506;13.462;2023-01-10T09:15:18;8.20;;;7.33;;
8462;SDS011;4268;52.506;13.462;2023-01-10T09:17:43;8.87;;;7.33;;
8462;SDS011;4268;52.506;13.462;2023-01-10T09:20:09;14.80;;;13.30;;
8462;SDS011;4268;52.506;13.462;2023-01-10T09:22:35;8.17;;;6.80;;
8462;SDS011;4268;52.506;13.462;2023-01-10T09:25:02;8.17;;;7.17;;
8462;SDS011;4268;52.506;13.462;2023-01-10T09:27:28;8.20;;;7.40;;
8462;SDS011;4268;52.506;13.462;2023-01-10T09:29:53;8.77;;;6.80;;
8462;SDS011;4268;52.506;13.462;2023-01-10T09:32:18;10.50;;;7.63;;
8462;SDS011;4268;52.506;13.462;2023-01-10T09:34:44;8.53;;;6.80;;
8462;SDS011;4268;52.506;13.462;2023-01-10T09:37:09;8.60;;;6.40;;
8462;SDS011;4268;52.506;13.462;2023-01-10T09:39:35;7.63;;;6.53;;
8462;SDS011;4268;52.506;13.462;2023-01-10T09:42:17;7.70;;;6.53;;
8462;SDS011;4268;52.506;13.462;2023-01-10T09:45:14;7.87;;;6.70;;
8462;SDS011;4268;52.506;13.462;2023-01-10T09:47:52;8.47;;;6.53;;
8462;SDS011;4268;52.506;13.462;2023-01-10T09:53:34;7.27;;;6.07;;
8462;SDS011;4268;52.506;13.462;2023-01-10T09:56:03;7.43;;;6.20;;
8462;SDS011;4268;52.506;13.462;2023-01-10T09:58:30;6.97;;;5.67;;
8462;SDS011;4268;52.506;13.462;2023-01-10T10:00:59;8.43;;;6.37;;
8462;SDS011;4268;52.506;13.462;2023-01-10T10:03:40;7.40;;;6.60;;
8462;SDS011;4268;52.506;13.462;2023-01-10T10:08:41;9.17;;;6.77;;
8462;SDS011;4268;52.506;13.462;2023-01-10T10:16:43;9.03;;;5.80;;
8462;SDS011;4268;52.506;13.462;2023-01-10T10:22:15;10.40;;;6.63;;
8462;SDS011;4268;52.506;13.462;2023-01-10T10:25:02;7.47;;;6.43;;
8462;SDS011;4268;52.506;13.462;2023-01-10T10:27:41;8.23;;;6.70;;
8462;SDS011;4268;52.506;13.462;2023-01-10T10:30:36;7.67;;;6.17;;
8462;SDS011;4268;52.506;13.462;2023-01-10T10:33:19;8.40;;;6.30;;
8462;SDS011;4268;52.506;13.462;2023-01-10T10:38:45;9.73;;;8.93;;
8462;SDS011;4268;52.506;13.462;2023-01-10T10:41:17;11.03;;;7.07;;
8462;SDS011;4268;52.506;13.462;2023-01-10T10:43:54;12.47;;;6.70;;
8462;SDS011;4268;52.506;13.462;2023-01-10T10:46:24;26.30;;;24.47;;
8462;SDS011;4268;52.506;13.462;2023-01-10T10:53:52;7.73;;;6.20;;
8462;SDS011;4268;52.506;13.462;2023-01-10T10:56:20;8.10;;;5.93;;
8462;SDS011;4268;52.506;13.462;2023-01-10T10:58:49;9.30;;;6.47;;
8462;SDS011;4268;52.506;13.462;2023-01-10T11:01:19;8.83;;;5.47;;
8462;SDS011;4268;52.506;13.462;2023-01-10T11:03:55;8.97;;;5.90;;
8462;SDS011;4268;52.506;13.462;2023-01-10T11:06:25;12.33;;;5.80;;
8462;SDS011;4268;52.506;13.462;2023-01-10T11:08:54;8.63;;;5.50;;
8462;SDS011;4268;52.506;13.462;2023-01-10T11:11:32;8.30;;;5.40;;
8462;SDS011;4268;52.506;13.462;2023-01-10T11:14:01;10.57;;;5.20;;
8462;SDS011;4268;52.506;13.462;2023-01-10T11:16:29;8.50;;;5.43;;
8462;SDS011;4268;52.506;13.462;2023-01-10T11:21:54;6.60;;;5.23;;
8462;SDS011;4268;52.506;13.462;2023-01-10T11:24:27;8.20;;;5.43;;
8462;SDS011;4268;52.506;13.462;2023-01-10T11:26:59;7.83;;;5.73;;
8462;SDS011;4268;52.506;13.462;2023-01-10T11:29:38;6.10;;;5.10;;
8462;SDS011;4268;52.506;13.462;2023-01-10T11:32:14;7.83;;;5.30;;
8462;SDS011;4268;52.506;13.462;2023-01-10T11:35:05;6.80;;;5.87;;
8462;SDS011;4268;52.506;13.462;2023-01-10T11:37:32;8.70;;;5.40;;
8462;SDS011;4268;52.506;13.462;2023-01-10T11:40:16;6.90;;;5.77;;
8462;SDS011;4268;52.506;13.462;2023-01-10T11:42:48;7.57;;;5.60;;
8462;SDS011;4268;52.506;13.462;2023-01-10T11:47:45;9.57;;;6.07;;
8462;SDS011;4268;52.506;13.462;2023-01-10T11:50:27;7.50;;;5.20;;
8462;SDS011;4268;52.506;13.462;2023-01-10T11:52:56;8.87;;;5.27;;
8462;SDS011;4268;52.506;13.462;2023-01-10T11:55:23;7.57;;;5.07;;
8462;SDS011;4268;52.506;13.462;2023-01-10T11:57:59;7.87;;;5.10;;
8462;SDS011;4268;52.506;13.462;2023-01-10T12:00:32;7.20;;;5.07;;
8462;SDS011;4268;52.506;13.462;2023-01-10T12:03:00;7.47;;;5.23;;
8462;SDS011;4268;52.506;13.462;2023-01-10T12:05:27;9.17;;;5.20;;
8462;SDS011;4268;52.506;13.462;2023-01-10T12:07:56;10.53;;;5.47;;
8462;SDS011;4268;52.506;13.462;2023-01-10T12:10:26;11.13;;;5.40;;
8462;SDS011;4268;52.506;13.462;2023-01-10T12:12:56;7.03;;;4.73;;
8462;SDS011;4268;52.506;13.462;2023-01-10T12:15:25;6.70;;;4.70;;
8462;SDS011;4268;52.506;13.462;2023-01-10T12:17:56;6.93;;;5.00;;
8462;SDS011;4268;52.506;13.462;2023-01-10T12:20:27;7.07;;;4.77;;
8462;SDS011;4268;52.506;13.462;2023-01-10T12:22:59;7.60;;;5.67;;
8462;SDS011;4268;52.506;13.462;2023-01-10T12:26:02;8.50;;;5.27;;
8462;SDS011;4268;52.506;13.462;2023-01-10T12:28:25;6.97;;;5.00;;
8462;SDS011;4268;52.506;13.462;2023-01-10T12:30:53;8.40;;;5.00;;
8462;SDS011;4268;52.506;13.462;2023-01-10T12:33:26;9.33;;;5.27;;
8462;SDS011;4268;52.506;13.462;2023-01-10T12:36:14;10.60;;;5.30;;
8462;SDS011;4268;52.506;13.462;2023-01-10T12:41:58;7.53;;;4.73;;
8462;SDS011;4268;52.506;13.462;2023-01-10T12:44:46;9.47;;;4.60;;
8462;SDS011;4268;52.506;13.462;2023-01-10T12:47:18;8.73;;;5.00;;
8462;SDS011;4268;52.506;13.462;2023-01-10T12:52:44;7.43;;;4.37;;
8462;SDS011;4268;52.506;13.462;2023-01-10T12:55:17;9.07;;;4.50;;
8462;SDS011;4268;52.506;13.462;2023-01-10T12:57:45;6.73;;;4.20;;
8462;SDS011;4268;52.506;13.462;2023-01-10T13:00:20;7.17;;;4.60;;
8462;SDS011;4268;52.506;13.462;2023-01-10T13:02:48;6.67;;;4.20;;
8462;SDS011;4268;52.506;13.462;2023-01-10T13:05:18;9.37;;;4.70;;
8462;SDS011;4268;52.506;13.462;2023-01-10T13:07:47;5.60;;;3.80;;
8462;SDS011;4268;52.506;13.462;2023-01-10T13:10:16;7.90;;;3.87;;
8462;SDS011;4268;52.506;13.462;2023-01-10T13:13:03;5.70;;;3.93;;
8462;SDS011;4268;52.506;13.462;2023-01-10T13:15:33;6.23;;;3.97;;
8462;SDS011;4268;52.506;13.462;2023-01-10T13:20:43;5.27;;;3.70;;
8462;SDS011;4268;52.506;13.462;2023-01-10T13:23:29;5.80;;;3.97;;
8462;SDS011;4268;52.506;13.462;2023-01-10T13:25:58;7.43;;;3.90;;
8462;SDS011;4268;52.506;13.462;2023-01-10T13:28:28;8.97;;;4.17;;
8462;SDS011;4268;52.506;13.462;2023-01-10T13:31:00;5.20;;;3.60;;
8462;SDS011;4268;52.506;13.462;2023-01-10T13:36:11;6.37;;;3.87;;
8462;SDS011;4268;52.506;13.462;2023-01-10T13:38:45;6.43;;;3.80;;
8462;SDS011;4268;52.506;13.462;2023-01-10T13:41:14;9.83;;;4.07;;
8462;SDS011;4268;52.506;13.462;2023-01-10T13:44:12;8.13;;;4.20;;
8462;SDS011;4268;52.506;13.462;2023-01-10T13:46:46;6.00;;;3.83;;
8462;SDS011;4268;52.506;13.462;2023-01-10T13:55:00;6.97;;;4.03;;
8462;SDS011;4268;52.506;13.462;2023-01-10T13:58:37;5.93;;;4.20;;
8462;SDS011;4268;52.506;13.462;2023-01-10T14:04:33;8.03;;;4.30;;
8462;SDS011;4268;52.506;13.462;2023-01-10T14:07:03;9.30;;;4.67;;
8462;SDS011;4268;52.506;13.462;2023-01-10T14:09:38;10.83;;;4.53;;
8462;SDS011;4268;52.506;13.462;2023-01-10T14:12:25;7.47;;;4.73;;
8462;SDS011;4268;52.506;13.462;2023-01-10T14:14:59;10.80;;;4.53;;
8462;SDS011;4268;52.506;13.462;2023-01-10T14:17:32;6.93;;;4.77;;
8462;SDS011;4268;52.506;13.462;2023-01-10T14:23:27;9.17;;;6.27;;
8462;SDS011;4268;52.506;13.462;2023-01-10T14:25:51;7.23;;;4.50;;
8462;SDS011;4268;52.506;13.462;2023-01-10T14:28:25;10.13;;;4.70;;
8462;SDS011;4268;52.506;13.462;2023-01-10T14:31:00;10.77;;;5.33;;
8462;SDS011;4268;52.506;13.462;2023-01-10T14:33:29;8.53;;;5.30;;
8462;SDS011;4268;52.506;13.462;2023-01-10T14:35:58;8.20;;;4.93;;
8462;SDS011;4268;52.506;13.462;2023-01-10T14:38:28;8.27;;;5.00;;
8462;SDS011;4268;52.506;13.462;2023-01-10T14:41:01;7.50;;;5.70;;
8462;SDS011;4268;52.506;13.462;2023-01-10T14:43:32;8.00;;;5.73;;
8462;SDS011;4268;52.506;13.462;2023-01-10T14:46:15;8.53;;;5.07;;
8462;SDS011;4268;52.506;13.462;2023-01-10T14:54:11;7.90;;;5.27;;
8462;SDS011;4268;52.506;13.462;2023-01-10T15:01:50;7.77;;;5.00;;
8462;SDS011;4268;52.506;13.462;2023-01-10T15:04:18;8.97;;;5.60;;
8462;SDS011;4268;52.506;13.462;2023-01-10T15:06:56;8.03;;;5.47;;
8462;SDS011;4268;52.506;13.462;2023-01-10T15:09:30;7.53;;;5.17;;
8462;SDS011;4268;52.506;13.462;2023-01-10T15:11:56;5.87;;;4.70;;
8462;SDS011;4268;52.506;13.462;2023-01-10T15:14:25;6.73;;;5.17;;
8462;SDS011;4268;52.506;13.462;2023-01-10T15:16:55;8.53;;;5.40;;
8462;SDS011;4268;52.506;13.462;2023-01-10T15:19:24;10.07;;;5.60;;
8462;SDS011;4268;52.506;13.462;2023-01-10T15:21:52;7.90;;;5.10;;
8462;SDS011;4268;52.506;13.462;2023-01-10T15:24:31;8.47;;;5.13;;
8462;SDS011;4268;52.506;13.462;2023-01-10T15:26:59;7.57;;;5.20;;
8462;SDS011;4268;52.506;13.462;2023-01-10T15:29:29;7.27;;;4.87;;
8462;SDS011;4268;52.506;13.462;2023-01-10T15:32:05;8.80;;;5.10;;
8462;SDS011;4268;52.506;13.462;2023-01-10T15:34:34;7.53;;;4.97;;
8462;SDS011;4268;52.506;13.462;2023-01-10T15:37:02;9.67;;;5.40;;
8462;SDS011;4268;52.506;13.462;2023-01-10T15:39:36;7.50;;;4.80;;
8462;SDS011;4268;52.506;13.462;2023-01-10T15:42:08;7.50;;;5.30;;
8462;SDS011;4268;52.506;13.462;2023-01-10T15:44:39;7.00;;;5.13;;
8462;SDS011;4268;52.506;13.462;2023-01-10T15:49:58;7.17;;;5.40;;
8462;SDS011;4268;52.506;13.462;2023-01-10T15:52:24;8.40;;;4.93;;
8462;SDS011;4268;52.506;13.462;2023-01-10T15:54:49;8.07;;;5.00;;
8462;SDS011;4268;52.506;13.462;2023-01-10T15:59:50;7.33;;;5.07;;
8462;SDS011;4268;52.506;13.462;2023-01-10T16:02:28;7.73;;;5.10;;
8462;SDS011;4268;52.506;13.462;2023-01-10T16:04:57;8.47;;;5.77;;
8462;SDS011;4268;52.506;13.462;2023-01-10T16:07:31;9.50;;;5.87;;
8462;SDS011;4268;52.506;13.462;2023-01-10T16:10:05;6.33;;;4.60;;
8462;SDS011;4268;52.506;13.462;2023-01-10T16:12:39;6.53;;;5.07;;
8462;SDS011;4268;52.506;13.462;2023-01-10T16:15:25;5.97;;;4.80;;
8462;SDS011;4268;52.506;13.462;2023-01-10T16:17:52;7.13;;;5.17;;
8462;SDS011;4268;52.506;13.462;2023-01-10T16:20:19;5.63;;;4.33;;
8462;SDS011;4268;52.506;13.462;2023-01-10T16:22:49;6.17;;;4.67;;
8462;SDS011;4268;52.506;13.462;2023-01-10T16:25:16;8.43;;;5.10;;
8462;SDS011;4268;52.506;13.462;2023-01-10T16:27:48;8.77;;;4.83;;
8462;SDS011;4268;52.506;13.462;2023-01-10T16:30:21;8.27;;;4.90;;
8462;SDS011;4268;52.506;13.462;2023-01-10T16:32:47;7.73;;;4.87;;
8462;SDS011;4268;52.506;13.462;2023-01-10T16:35:13;5.57;;;5.00;;
8462;SDS011;4268;52.506;13.462;2023-01-10T16:37:40;7.33;;;4.90;;
8462;SDS011;4268;52.506;13.462;2023-01-10T16:40:26;6.80;;;4.37;;
8462;SDS011;4268;52.506;13.462;2023-01-10T16:42:54;8.03;;;6.33;;
8462;SDS011;4268;52.506;13.462;2023-01-10T16:45:38;10.80;;;5.70;;